createdAt,value
2023-05-01T00:00:40.246Z,44.3
2023-05-01T00:01:56.382Z,44.3
2023-05-01T00:03:12.577Z,44.3
2023-05-01T00:04:27.807Z,44.3
2023-05-01T00:05:43.034Z,44.4
2023-05-01T00:06:59.149Z,44.4
2023-05-01T00:08:15.300Z,44.4
2023-05-01T00:09:31.426Z,44.3
2023-05-01T00:10:47.564Z,44.3
2023-05-01T00:12:03.702Z,44.4
2023-05-01T00:13:19.835Z,44.3
2023-05-01T00:14:35.969Z,44.3
2023-05-01T00:15:52.109Z,44.4
2023-05-01T00:17:08.242Z,44.4
2023-05-01T00:18:24.378Z,44.5
2023-05-01T00:19:40.517Z,44.6
2023-05-01T00:20:56.659Z,44.6
2023-05-01T00:22:12.789Z,44.8
2023-05-01T00:23:28.922Z,44.9
2023-05-01T00:24:45.065Z,44.9
2023-05-01T00:26:01.196Z,44.9
2023-05-01T00:27:17.324Z,44.9
2023-05-01T00:28:33.469Z,44.9
2023-05-01T00:29:49.593Z,44.9
2023-05-01T00:31:05.749Z,44.9
2023-05-01T00:32:21.876Z,44.9
2023-05-01T00:33:38.003Z,44.8
2023-05-01T00:34:54.151Z,44.9
2023-05-01T00:36:10.273Z,44.9
2023-05-01T00:37:26.491Z,44.9
2023-05-01T00:38:41.727Z,44.9
2023-05-01T00:39:56.925Z,45
2023-05-01T00:41:13.080Z,45
2023-05-01T00:42:29.204Z,45
2023-05-01T00:43:45.346Z,45
2023-05-01T00:45:01.473Z,45
2023-05-01T00:46:17.601Z,45
2023-05-01T00:47:33.756Z,45
2023-05-01T00:48:49.897Z,45
2023-05-01T00:50:06.023Z,45
2023-05-01T00:51:22.161Z,45
2023-05-01T00:52:38.280Z,45
2023-05-01T00:53:54.437Z,44.9
2023-05-01T00:55:10.566Z,44.9
2023-05-01T00:56:26.710Z,44.9
2023-05-01T00:57:42.834Z,45
2023-05-01T00:58:58.966Z,45
2023-05-01T01:00:15.114Z,45
2023-05-01T01:01:31.252Z,45.1
2023-05-01T01:02:47.386Z,45.1
2023-05-01T01:04:03.507Z,45.2
2023-05-01T01:05:19.646Z,45.2
2023-05-01T01:06:35.801Z,45.1
2023-05-01T01:07:51.925Z,45.2
2023-05-01T01:09:08.065Z,45.1
2023-05-01T01:10:24.206Z,45.1
2023-05-01T01:11:40.389Z,45.2
2023-05-01T01:12:55.620Z,45.2
2023-05-01T01:14:10.839Z,45.3
2023-05-01T01:15:25.988Z,45.3
2023-05-01T01:16:42.115Z,45.4
2023-05-01T01:17:58.244Z,45.4
2023-05-01T01:19:14.388Z,45.4
2023-05-01T01:20:30.509Z,45.4
2023-05-01T01:21:46.665Z,45.4
2023-05-01T01:23:02.802Z,45.4
2023-05-01T01:24:18.927Z,45.5
2023-05-01T01:25:35.061Z,45.4
2023-05-01T01:26:51.193Z,45.4
2023-05-01T01:28:07.336Z,45.4
2023-05-01T01:29:23.481Z,45.3
2023-05-01T01:30:39.604Z,45.4
2023-05-01T01:31:55.739Z,45.3
2023-05-01T01:33:11.872Z,45.4
2023-05-01T01:34:28.026Z,45.4
2023-05-01T01:35:44.153Z,45.5
2023-05-01T01:37:00.296Z,45.4
2023-05-01T01:38:16.422Z,45.6
2023-05-01T01:39:32.548Z,45.6
2023-05-01T01:40:48.695Z,45.5
2023-05-01T01:42:04.833Z,45.6
2023-05-01T01:43:20.975Z,45.7
2023-05-01T01:44:37.097Z,45.7
2023-05-01T01:45:53.242Z,45.7
2023-05-01T01:47:09.389Z,45.6
2023-05-01T01:48:25.510Z,45.7
2023-05-01T01:49:41.648Z,45.8
2023-05-01T01:50:57.791Z,45.8
2023-05-01T01:52:13.926Z,45.8
2023-05-01T01:53:30.066Z,45.8
2023-05-01T01:54:46.207Z,45.8
2023-05-01T01:56:02.337Z,45.7
2023-05-01T01:57:18.462Z,45.7
2023-05-01T01:58:34.602Z,45.8
2023-05-01T01:59:50.746Z,45.8
2023-05-01T02:01:06.884Z,45.7
2023-05-01T02:02:23.081Z,45.7
2023-05-01T02:03:38.319Z,45.8
2023-05-01T02:04:53.515Z,45.8
2023-05-01T02:06:09.653Z,45.7
2023-05-01T02:07:25.776Z,45.8
2023-05-01T02:08:41.920Z,45.7
2023-05-01T02:09:58.062Z,45.7
2023-05-01T02:11:14.190Z,45.8
2023-05-01T02:12:30.333Z,45.8
2023-05-01T02:13:46.458Z,45.8
2023-05-01T02:15:02.586Z,45.9
2023-05-01T02:16:18.746Z,45.9
2023-05-01T02:17:34.881Z,45.9
2023-05-01T02:18:51.009Z,45.9
2023-05-01T02:20:07.147Z,45.9
2023-05-01T02:21:23.271Z,45.9
2023-05-01T02:22:39.419Z,45.9
2023-05-01T02:23:55.556Z,45.9
2023-05-01T02:25:11.695Z,45.8
2023-05-01T02:26:27.827Z,45.9
2023-05-01T02:27:43.964Z,45.9
2023-05-01T02:29:00.097Z,45.9
2023-05-01T02:30:16.245Z,45.9
2023-05-01T02:31:32.362Z,45.8
2023-05-01T02:32:48.504Z,45.8
2023-05-01T02:34:04.639Z,45.9
2023-05-01T02:35:20.783Z,45.8
2023-05-01T02:36:36.975Z,45.9
2023-05-01T02:37:52.216Z,45.9
2023-05-01T02:39:07.423Z,45.9
2023-05-01T02:40:23.548Z,46
2023-05-01T02:41:39.692Z,45.9
2023-05-01T02:42:55.828Z,45.9
2023-05-01T02:44:11.951Z,45.9
2023-05-01T02:45:28.110Z,46
2023-05-01T02:46:44.228Z,46.1
2023-05-01T02:48:00.365Z,46
2023-05-01T02:49:16.492Z,45.9
2023-05-01T02:50:32.638Z,46
2023-05-01T02:51:48.790Z,46
2023-05-01T02:53:04.906Z,46.1
2023-05-01T02:54:21.040Z,46
2023-05-01T02:55:37.180Z,46.1
2023-05-01T02:56:53.308Z,46
2023-05-01T02:58:09.450Z,46
2023-05-01T02:59:25.600Z,46.1
2023-05-01T03:00:41.731Z,46.1
2023-05-01T03:01:57.861Z,46.1
2023-05-01T03:03:13.996Z,46
2023-05-01T03:04:30.143Z,46.1
2023-05-01T03:05:46.265Z,46.1
2023-05-01T03:07:02.406Z,46.1
2023-05-01T03:08:18.541Z,46
2023-05-01T03:09:34.667Z,46
2023-05-01T03:10:50.883Z,46
2023-05-01T03:12:06.144Z,46
2023-05-01T03:13:21.342Z,46
2023-05-01T03:14:37.484Z,46
2023-05-01T03:15:53.623Z,46
2023-05-01T03:17:09.759Z,46
2023-05-01T03:18:25.880Z,46
2023-05-01T03:19:42.023Z,46.1
2023-05-01T03:20:58.167Z,46
2023-05-01T03:22:14.293Z,46
2023-05-01T03:23:30.429Z,46
2023-05-01T03:24:46.572Z,46
2023-05-01T03:26:02.695Z,46.1
2023-05-01T03:27:18.854Z,46
2023-05-01T03:28:34.987Z,46
2023-05-01T03:29:51.123Z,46.1
2023-05-01T03:31:07.241Z,46
2023-05-01T03:32:23.388Z,46.1
2023-05-01T03:33:39.518Z,46
2023-05-01T03:34:55.669Z,46.1
2023-05-01T03:36:11.793Z,46
2023-05-01T03:37:27.927Z,45.9
2023-05-01T03:38:44.058Z,45.8
2023-05-01T03:40:00.213Z,45.9
2023-05-01T03:41:16.332Z,45.8
2023-05-01T03:42:32.463Z,45.8
2023-05-01T03:43:48.611Z,45.9
2023-05-01T03:45:04.807Z,45.9
2023-05-01T03:46:20.033Z,46
2023-05-01T03:47:36.231Z,45.9
2023-05-01T03:48:51.429Z,46
2023-05-01T03:50:07.569Z,46
2023-05-01T03:51:23.707Z,46
2023-05-01T03:52:39.841Z,46.1
2023-05-01T03:53:55.973Z,46
2023-05-01T03:55:12.114Z,46.1
2023-05-01T03:56:28.255Z,46
2023-05-01T03:57:44.396Z,46
2023-05-01T03:59:00.518Z,46.1
2023-05-01T04:00:16.650Z,46
2023-05-01T04:01:32.780Z,46
2023-05-01T04:02:48.931Z,46
2023-05-01T04:04:05.071Z,45.9
2023-05-01T04:05:21.210Z,45.9
2023-05-01T04:06:37.339Z,46
2023-05-01T04:07:53.462Z,45.9
2023-05-01T04:09:09.613Z,45.9
2023-05-01T04:10:25.756Z,45.9
2023-05-01T04:11:41.892Z,45.9
2023-05-01T04:14:14.145Z,45.9
2023-05-01T04:15:30.295Z,45.8
2023-05-01T04:16:46.437Z,45.9
2023-05-01T04:18:02.558Z,45.8
2023-05-01T04:19:18.694Z,45.7
2023-05-01T04:20:34.882Z,45.7
2023-05-01T04:21:50.129Z,45.6
2023-05-01T04:23:05.339Z,45.7
2023-05-01T04:24:21.473Z,45.7
2023-05-01T04:25:37.606Z,45.6
2023-05-01T04:26:53.743Z,45.6
2023-05-01T04:28:09.883Z,45.6
2023-05-01T04:29:26.016Z,45.5
2023-05-01T04:30:42.156Z,45.5
2023-05-01T04:31:58.289Z,45.5
2023-05-01T04:33:14.418Z,45.4
2023-05-01T04:34:30.555Z,45.4
2023-05-01T04:35:46.700Z,45.5
2023-05-01T04:37:02.836Z,45.6
2023-05-01T04:38:18.965Z,45.5
2023-05-01T04:39:35.098Z,45.5
2023-05-01T04:40:51.246Z,45.3
2023-05-01T04:42:07.369Z,45.3
2023-05-01T04:43:23.510Z,45.3
2023-05-01T04:44:39.647Z,45.3
2023-05-01T04:45:55.788Z,45.1
2023-05-01T04:47:11.914Z,45.1
2023-05-01T04:48:28.048Z,45.2
2023-05-01T04:49:44.182Z,45.2
2023-05-01T04:51:00.342Z,45.2
2023-05-01T04:52:16.462Z,45.1
2023-05-01T04:53:32.606Z,45.1
2023-05-01T04:54:48.786Z,45.1
2023-05-01T04:56:04.035Z,45.1
2023-05-01T04:57:19.238Z,45.1
2023-05-01T04:58:34.381Z,45
2023-05-01T04:59:50.530Z,45
2023-05-01T05:01:06.677Z,45
2023-05-01T05:02:22.806Z,45
2023-05-01T05:03:38.932Z,45
2023-05-01T05:04:55.065Z,45
2023-05-01T05:06:11.222Z,44.9
2023-05-01T05:07:27.347Z,44.9
2023-05-01T05:08:43.485Z,44.8
2023-05-01T05:09:59.608Z,44.8
2023-05-01T05:11:15.752Z,44.9
2023-05-01T05:12:31.885Z,44.8
2023-05-01T05:13:48.020Z,44.8
2023-05-01T05:15:04.159Z,44.7
2023-05-01T05:16:20.303Z,44.6
2023-05-01T05:17:36.421Z,44.6
2023-05-01T05:18:52.572Z,44.6
2023-05-01T05:20:08.702Z,44.4
2023-05-01T05:21:24.836Z,44.5
2023-05-01T05:22:40.965Z,44.4
2023-05-01T05:25:13.262Z,44.3
2023-05-01T05:26:29.388Z,44.3
2023-05-01T05:27:45.528Z,44.2
2023-05-01T05:29:01.647Z,44.1
2023-05-01T05:30:17.789Z,44.1
2023-05-01T05:31:33.943Z,44.1
2023-05-01T05:32:50.062Z,44.1
2023-05-01T05:34:06.197Z,44.1
2023-05-01T05:35:22.335Z,44
2023-05-01T05:36:38.466Z,44
2023-05-01T05:37:54.608Z,43.9
2023-05-01T05:39:10.742Z,44
2023-05-01T05:40:26.883Z,44
2023-05-01T05:41:43.014Z,43.9
2023-05-01T05:42:59.148Z,43.9
2023-05-01T05:44:15.301Z,43.7
2023-05-01T05:45:31.493Z,43.5
2023-05-01T05:46:46.733Z,43.6
2023-05-01T05:48:01.936Z,43.5
2023-05-01T05:49:18.077Z,43.5
2023-05-01T05:50:34.206Z,43.4
2023-05-01T05:51:50.338Z,43.4
2023-05-01T05:53:06.473Z,43.3
2023-05-01T05:54:22.607Z,43.3
2023-05-01T05:55:38.751Z,43.1
2023-05-01T05:56:54.884Z,43.2
2023-05-01T05:58:11.024Z,43.1
2023-05-01T05:59:27.157Z,43.1
2023-05-01T06:00:43.306Z,43.1
2023-05-01T06:01:59.427Z,42.9
2023-05-01T06:03:15.573Z,42.9
2023-05-01T06:04:31.687Z,42.9
2023-05-01T06:05:47.829Z,42.9
2023-05-01T06:07:03.974Z,42.8
2023-05-01T06:08:20.114Z,42.8
2023-05-01T06:09:36.239Z,42.8
2023-05-01T06:10:52.374Z,42.8
2023-05-01T06:12:08.504Z,42.7
2023-05-01T06:13:24.662Z,42.8
2023-05-01T06:14:40.798Z,42.7
2023-05-01T06:15:56.918Z,42.6
2023-05-01T06:17:13.066Z,42.5
2023-05-01T06:18:29.181Z,42.5
2023-05-01T06:19:45.396Z,42.2
2023-05-01T06:21:00.643Z,42.3
2023-05-01T06:22:16.829Z,42.3
2023-05-01T06:23:32.043Z,42.1
2023-05-01T06:24:48.172Z,42.2
2023-05-01T06:26:04.294Z,42.2
2023-05-01T06:27:20.436Z,42.1
2023-05-01T06:28:36.571Z,42.1
2023-05-01T06:29:52.720Z,42
2023-05-01T06:31:08.858Z,42
2023-05-01T06:32:25.103Z,41.5
2023-05-01T06:33:41.236Z,41.6
2023-05-01T06:34:57.373Z,41.8
2023-05-01T06:36:13.516Z,41.6
2023-05-01T06:37:29.659Z,41.5
2023-05-01T06:38:45.782Z,41.6
2023-05-01T06:40:01.928Z,41.5
2023-05-01T06:41:18.063Z,41.6
2023-05-01T06:42:34.211Z,41.5
2023-05-01T06:43:50.342Z,41.5
2023-05-01T06:45:06.459Z,41.4
2023-05-01T06:46:22.597Z,41.2
2023-05-01T06:47:38.742Z,41.3
2023-05-01T06:48:54.886Z,41.3
2023-05-01T06:50:11.016Z,41.2
2023-05-01T06:51:27.149Z,41.1
2023-05-01T06:52:43.283Z,40.8
2023-05-01T06:53:59.407Z,41
2023-05-01T06:55:15.556Z,41.2
2023-05-01T06:56:31.691Z,41.2
2023-05-01T06:57:47.829Z,41.1
2023-05-01T06:59:03.966Z,41.1
2023-05-01T07:00:20.104Z,40.7
2023-05-01T07:01:36.245Z,40.8
2023-05-01T07:02:52.384Z,40.7
2023-05-01T07:04:08.508Z,40.5
2023-05-01T07:05:24.639Z,40.6
2023-05-01T07:06:40.781Z,40.5
2023-05-01T07:07:56.919Z,40.3
2023-05-01T07:09:13.049Z,40.2
2023-05-01T07:10:29.183Z,39.9
2023-05-01T07:11:45.319Z,39.8
2023-05-01T07:13:01.451Z,39.7
2023-05-01T07:14:17.600Z,39.3
2023-05-01T07:15:33.735Z,39.3
2023-05-01T07:16:49.879Z,39.4
2023-05-01T07:18:06.011Z,39.1
2023-05-01T07:19:22.207Z,39.2
2023-05-01T07:20:37.397Z,38.9
2023-05-01T07:21:53.544Z,38.9
2023-05-01T07:23:09.668Z,38.7
2023-05-01T07:24:25.807Z,38.4
2023-05-01T07:25:41.947Z,38.3
2023-05-01T07:26:58.087Z,37.6
2023-05-01T07:28:14.213Z,37.3
2023-05-01T07:29:30.347Z,36.6
2023-05-01T07:30:46.497Z,35.9
2023-05-01T07:32:02.633Z,34.8
2023-05-01T07:33:18.766Z,34.2
2023-05-01T07:34:34.911Z,33.8
2023-05-01T07:35:51.034Z,33.6
2023-05-01T07:37:07.168Z,33.7
2023-05-01T07:38:23.323Z,33.5
2023-05-01T07:39:39.458Z,32.9
2023-05-01T07:40:55.591Z,32.5
2023-05-01T07:42:11.722Z,32.8
2023-05-01T07:43:27.857Z,32.5
2023-05-01T07:44:43.992Z,32.7
2023-05-01T07:46:00.131Z,32.8
2023-05-01T07:47:16.258Z,32.8
2023-05-01T07:48:32.403Z,32.6
2023-05-01T07:49:48.530Z,32.7
2023-05-01T07:51:04.678Z,32.5
2023-05-01T07:52:20.869Z,32.3
2023-05-01T07:53:36.139Z,32.1
2023-05-01T07:54:51.331Z,32.1
2023-05-01T07:56:07.465Z,31.9
2023-05-01T07:57:23.600Z,31.8
2023-05-01T07:58:39.730Z,31.7
2023-05-01T07:59:55.869Z,31.5
2023-05-01T08:01:12.018Z,31.6
2023-05-01T08:02:28.147Z,31.3
2023-05-01T08:03:44.285Z,31.1
2023-05-01T08:05:00.415Z,31.1
2023-05-01T08:06:16.566Z,31
2023-05-01T08:07:32.708Z,30.8
2023-05-01T08:08:48.844Z,30.8
2023-05-01T08:10:04.975Z,30.6
2023-05-01T08:11:21.103Z,30.2
2023-05-01T08:12:37.234Z,29.9
2023-05-01T08:13:53.385Z,29.9
2023-05-01T08:15:09.530Z,29.9
2023-05-01T08:16:25.663Z,29.9
2023-05-01T08:17:41.791Z,29.8
2023-05-01T08:18:57.913Z,29.9
2023-05-01T08:20:14.071Z,29.8
2023-05-01T08:21:30.209Z,29.6
2023-05-01T08:22:46.345Z,29.5
2023-05-01T08:24:02.467Z,29.7
2023-05-01T08:25:18.597Z,29.5
2023-05-01T08:26:34.821Z,29.4
2023-05-01T08:27:50.060Z,29
2023-05-01T08:29:05.317Z,28.6
2023-05-01T08:30:20.553Z,28.6
2023-05-01T08:31:35.764Z,28.5
2023-05-01T08:32:51.903Z,28.5
2023-05-01T08:34:08.058Z,28.4
2023-05-01T08:35:24.182Z,28.4
2023-05-01T08:36:40.323Z,28.5
2023-05-01T08:37:56.456Z,28.4
2023-05-01T08:39:12.588Z,28.4
2023-05-01T08:40:28.730Z,28.4
2023-05-01T08:41:44.871Z,28.5
2023-05-01T08:43:00.993Z,28.5
2023-05-01T08:44:17.141Z,28.6
2023-05-01T08:45:33.271Z,28.5
2023-05-01T08:46:49.411Z,28.5
2023-05-01T08:48:05.541Z,28.8
2023-05-01T08:49:21.682Z,28.7
2023-05-01T08:50:37.810Z,28.7
2023-05-01T08:51:53.951Z,28.8
2023-05-01T08:53:10.099Z,28.8
2023-05-01T08:54:26.241Z,28.7
2023-05-01T08:55:42.378Z,28.5
2023-05-01T08:56:58.507Z,28.6
2023-05-01T08:58:14.630Z,28.5
2023-05-01T08:59:30.780Z,28.5
2023-05-01T09:00:46.914Z,28.3
2023-05-01T09:02:03.052Z,28.1
2023-05-01T09:03:19.245Z,27.9
2023-05-01T09:04:34.448Z,27.8
2023-05-01T09:05:50.583Z,27.7
2023-05-01T09:07:06.716Z,27.6
2023-05-01T09:08:22.855Z,27.5
2023-05-01T09:09:38.985Z,27.4
2023-05-01T09:10:55.142Z,27.4
2023-05-01T09:12:11.275Z,27.4
2023-05-01T09:13:27.398Z,27.4
2023-05-01T09:14:43.534Z,27.4
2023-05-01T09:17:15.812Z,27.1
2023-05-01T09:18:31.962Z,27.1
2023-05-01T09:19:48.098Z,27
2023-05-01T09:21:04.221Z,27
2023-05-01T09:22:20.368Z,26.8
2023-05-01T09:23:36.507Z,26.7
2023-05-01T09:24:52.640Z,26.5
2023-05-01T09:26:08.776Z,26.4
2023-05-01T09:27:24.900Z,26.3
2023-05-01T09:28:41.035Z,26.1
2023-05-01T09:29:57.192Z,25.9
2023-05-01T09:31:13.325Z,25.8
2023-05-01T09:32:29.000Z,25.6
2023-05-01T09:33:45.587Z,25.5
2023-05-01T09:35:01.725Z,25.3
2023-05-01T09:36:17.946Z,25.3
2023-05-01T09:37:33.175Z,25.2
2023-05-01T09:38:48.382Z,25.1
2023-05-01T09:40:04.526Z,25.1
2023-05-01T09:41:20.667Z,25.1
2023-05-01T09:42:36.791Z,24.9
2023-05-01T09:43:52.939Z,24.7
2023-05-01T09:45:09.059Z,24.7
2023-05-01T09:46:25.217Z,24.6
2023-05-01T09:47:41.351Z,24.6
2023-05-01T09:48:57.493Z,24.5
2023-05-01T09:50:13.613Z,24.5
2023-05-01T09:51:29.753Z,24.5
2023-05-01T09:52:45.898Z,24.5
2023-05-01T09:54:02.037Z,24.4
2023-05-01T09:55:18.180Z,24.3
2023-05-01T09:56:34.313Z,24.1
2023-05-01T09:57:50.431Z,24.2
2023-05-01T09:59:06.585Z,24.3
2023-05-01T10:00:22.722Z,24.4
2023-05-01T10:01:38.852Z,24.4
2023-05-01T10:02:54.999Z,24.4
2023-05-01T10:04:11.129Z,24.4
2023-05-01T10:05:27.277Z,24.4
2023-05-01T10:06:43.411Z,24.5
2023-05-01T10:07:59.552Z,24.6
2023-05-01T10:09:15.680Z,24.7
2023-05-01T10:10:31.873Z,24.7
2023-05-01T10:11:47.126Z,24.6
2023-05-01T10:13:02.323Z,24.5
2023-05-01T10:14:18.451Z,24.3
2023-05-01T10:15:34.618Z,24.2
2023-05-01T10:16:50.753Z,24.1
2023-05-01T10:18:06.890Z,24
2023-05-01T10:19:23.021Z,23.8
2023-05-01T10:20:39.145Z,23.7
2023-05-01T10:21:55.301Z,23.6
2023-05-01T10:23:11.429Z,23.6
2023-05-01T10:24:27.570Z,23.6
2023-05-01T10:25:43.695Z,23.8
2023-05-01T10:26:59.835Z,24.1
2023-05-01T10:28:15.980Z,24.3
2023-05-01T10:29:32.111Z,24.4
2023-05-01T10:30:48.254Z,24.4
2023-05-01T10:32:04.385Z,24.4
2023-05-01T10:33:20.523Z,24.4
2023-05-01T10:34:36.680Z,24.4
2023-05-01T10:35:52.800Z,24.7
2023-05-01T10:37:08.942Z,25
2023-05-01T10:38:25.076Z,25.2
2023-05-01T10:39:41.213Z,25.1
2023-05-01T10:40:57.366Z,24.9
2023-05-01T10:42:13.496Z,24.7
2023-05-01T10:43:29.633Z,24.6
2023-05-01T10:44:45.816Z,24.5
2023-05-01T10:46:01.057Z,24.4
2023-05-01T10:47:16.261Z,24.3
2023-05-01T10:48:31.420Z,24.2
2023-05-01T10:49:47.567Z,24.2
2023-05-01T10:51:03.711Z,24.3
2023-05-01T10:52:19.837Z,24.2
2023-05-01T10:53:35.977Z,24.2
2023-05-01T10:54:52.102Z,24.2
2023-05-01T10:56:08.267Z,24.2
2023-05-01T10:57:24.388Z,24.3
2023-05-01T10:58:40.530Z,24.4
2023-05-01T10:59:56.667Z,24.5
2023-05-01T11:01:12.797Z,24.6
2023-05-01T11:02:28.948Z,24.7
2023-05-01T11:03:45.089Z,24.8
2023-05-01T11:05:01.213Z,24.8
2023-05-01T11:06:17.345Z,24.8
2023-05-01T11:07:33.489Z,25
2023-05-01T11:08:49.639Z,25.4
2023-05-01T11:10:05.766Z,25.6
2023-05-01T11:11:21.897Z,26.1
2023-05-01T11:12:38.040Z,26.7
2023-05-01T11:13:54.167Z,27.2
2023-05-01T11:15:10.318Z,27.5
2023-05-01T11:16:26.462Z,27.6
2023-05-01T11:17:42.585Z,27.8
2023-05-01T11:18:58.726Z,27.9
2023-05-01T11:20:14.857Z,28
2023-05-01T11:21:31.007Z,28
2023-05-01T11:22:47.154Z,28.2
2023-05-01T11:24:03.275Z,28.3
2023-05-01T11:25:19.410Z,28.3
2023-05-01T11:26:35.555Z,28.3
2023-05-01T11:27:51.698Z,28.3
2023-05-01T11:29:07.832Z,28.4
2023-05-01T11:30:23.959Z,28.5
2023-05-01T11:31:40.091Z,28.7
2023-05-01T11:32:56.243Z,28.9
2023-05-01T11:34:12.376Z,29.1
2023-05-01T11:35:28.574Z,29.2
2023-05-01T11:36:43.816Z,29.4
2023-05-01T11:37:59.018Z,29.6
2023-05-01T11:39:15.165Z,29.9
2023-05-01T11:40:31.296Z,30.1
2023-05-01T11:41:47.425Z,30.2
2023-05-01T11:43:03.565Z,30.4
2023-05-01T11:44:19.699Z,30.6
2023-05-01T11:45:35.839Z,30.7
2023-05-01T11:46:51.973Z,30.9
2023-05-01T11:48:08.110Z,31.1
2023-05-01T11:49:24.235Z,31.2
2023-05-01T11:50:40.398Z,31.3
2023-05-01T11:51:56.536Z,31.4
2023-05-01T11:53:12.661Z,31.5
2023-05-01T11:54:28.789Z,31.7
2023-05-01T11:55:44.918Z,31.8
2023-05-01T11:57:01.071Z,31.9
2023-05-01T11:58:17.214Z,32
2023-05-01T11:59:33.346Z,32.1
2023-05-01T12:00:49.471Z,32.2
2023-05-01T12:02:05.610Z,32.2
2023-05-01T12:03:21.759Z,32.4
2023-05-01T12:04:37.884Z,32.4
2023-05-01T12:05:54.034Z,32.5
2023-05-01T12:07:10.163Z,32.6
2023-05-01T12:08:26.286Z,32.7
2023-05-01T12:09:42.510Z,32.8
2023-05-01T12:10:57.754Z,32.8
2023-05-01T12:12:13.955Z,32.9
2023-05-01T12:13:29.231Z,33
2023-05-01T12:14:44.452Z,33
2023-05-01T12:15:59.722Z,33.2
2023-05-01T12:17:14.964Z,33.3
2023-05-01T12:18:30.172Z,33.3
2023-05-01T12:19:46.303Z,33.4
2023-05-01T12:21:02.461Z,33.5
2023-05-01T12:22:18.589Z,33.5
2023-05-01T12:23:34.723Z,33.5
2023-05-01T12:24:50.866Z,33.6
2023-05-01T12:26:06.989Z,33.6
2023-05-01T12:27:23.152Z,33.7
2023-05-01T12:28:39.278Z,33.7
2023-05-01T12:29:55.412Z,33.8
2023-05-01T12:31:11.537Z,33.8
2023-05-01T12:32:27.674Z,33.9
2023-05-01T12:33:43.826Z,33.9
2023-05-01T12:34:59.956Z,34
2023-05-01T12:36:16.085Z,34
2023-05-01T12:37:32.224Z,34
2023-05-01T12:38:48.354Z,34.1
2023-05-01T12:40:04.506Z,34.1
2023-05-01T12:41:20.645Z,34
2023-05-01T12:42:36.766Z,34.1
2023-05-01T12:43:52.907Z,34.1
2023-05-01T12:45:09.037Z,34.1
2023-05-01T12:46:25.192Z,34.1
2023-05-01T12:47:41.330Z,34.2
2023-05-01T12:48:57.448Z,34.2
2023-05-01T12:50:13.654Z,34.3
2023-05-01T12:51:28.878Z,34.3
2023-05-01T12:52:45.080Z,34.4
2023-05-01T12:54:00.289Z,34.5
2023-05-01T12:55:16.426Z,34.5
2023-05-01T12:57:48.705Z,34.6
2023-05-01T12:59:04.830Z,34.7
2023-05-01T13:00:20.969Z,34.7
2023-05-01T13:01:37.111Z,34.8
2023-05-01T13:02:53.257Z,34.8
2023-05-01T13:04:09.381Z,34.9
2023-05-01T13:05:25.507Z,35
2023-05-01T13:06:41.659Z,35
2023-05-01T13:07:57.780Z,35
2023-05-01T13:09:13.935Z,35
2023-05-01T13:10:30.057Z,35.1
2023-05-01T13:11:46.190Z,35.1
2023-05-01T13:13:02.333Z,35.1
2023-05-01T13:14:18.454Z,35.1
2023-05-01T13:15:34.612Z,35.2
2023-05-01T13:16:50.739Z,35.2
2023-05-01T13:18:06.877Z,35.2
2023-05-01T13:19:23.012Z,35.2
2023-05-01T13:20:39.150Z,35.3
2023-05-01T13:21:55.283Z,35.3
2023-05-01T13:23:11.427Z,35.3
2023-05-01T13:24:27.569Z,35.4
2023-05-01T13:25:43.750Z,35.4
2023-05-01T13:26:58.985Z,35.4
2023-05-01T13:28:14.205Z,35.4
2023-05-01T13:29:29.349Z,35.4
2023-05-01T13:30:45.510Z,35.5
2023-05-01T13:32:01.626Z,35.5
2023-05-01T13:33:17.759Z,35.6
2023-05-01T13:34:33.899Z,35.6
2023-05-01T13:35:50.038Z,35.6
2023-05-01T13:37:06.191Z,35.7
2023-05-01T13:38:22.311Z,35.6
2023-05-01T13:39:38.441Z,35.7
2023-05-01T13:40:54.591Z,35.7
2023-05-01T13:42:10.727Z,35.6
2023-05-01T13:43:26.866Z,35.7
2023-05-01T13:44:43.002Z,35.6
2023-05-01T13:45:59.139Z,35.6
2023-05-01T13:47:15.259Z,35.6
2023-05-01T13:48:31.397Z,35.6
2023-05-01T13:49:47.558Z,35.6
2023-05-01T13:51:03.690Z,35.6
2023-05-01T13:52:19.811Z,35.6
2023-05-01T13:53:35.954Z,35.6
2023-05-01T13:54:52.094Z,35.6
2023-05-01T13:56:08.240Z,35.6
2023-05-01T13:57:24.361Z,35.6
2023-05-01T13:58:40.506Z,35.7
2023-05-01T13:59:56.648Z,35.7
2023-05-01T14:01:12.766Z,35.7
2023-05-01T14:02:28.925Z,35.7
2023-05-01T14:03:45.046Z,35.9
2023-05-01T14:05:01.173Z,35.9
2023-05-01T14:06:17.313Z,35.9
2023-05-01T14:07:33.446Z,35.9
2023-05-01T14:08:49.595Z,35.9
2023-05-01T14:10:05.740Z,35.9
2023-05-01T14:11:21.000Z,35.9
2023-05-01T14:12:37.999Z,36
2023-05-01T14:13:54.132Z,36
2023-05-01T14:15:10.280Z,36
2023-05-01T14:16:26.464Z,36
2023-05-01T14:17:41.710Z,36
2023-05-01T14:18:56.920Z,36.1
2023-05-01T14:20:13.055Z,36.2
2023-05-01T14:21:29.184Z,36.2
2023-05-01T14:22:45.327Z,36.2
2023-05-01T14:24:01.445Z,36.2
2023-05-01T14:25:17.599Z,36.3
2023-05-01T14:26:33.727Z,36.3
2023-05-01T14:27:49.869Z,36.3
2023-05-01T14:29:06.000Z,36.3
2023-05-01T14:30:22.143Z,36.4
2023-05-01T14:31:38.276Z,36.4
2023-05-01T14:32:54.410Z,36.5
2023-05-01T14:34:10.556Z,36.5
2023-05-01T14:35:26.692Z,36.5
2023-05-01T14:36:42.813Z,36.5
2023-05-01T14:37:58.964Z,36.6
2023-05-01T14:39:15.092Z,36.5
2023-05-01T14:40:31.232Z,36.5
2023-05-01T14:41:47.357Z,36.6
2023-05-01T14:43:03.499Z,36.6
2023-05-01T14:44:19.642Z,36.5
2023-05-01T14:45:35.771Z,36.6
2023-05-01T14:46:51.922Z,36.6
2023-05-01T14:48:08.054Z,36.7
2023-05-01T14:49:24.186Z,36.7
2023-05-01T14:50:40.394Z,36.7
2023-05-01T14:51:55.628Z,36.6
2023-05-01T14:53:10.837Z,36.8
2023-05-01T14:54:26.972Z,36.8
2023-05-01T14:55:43.106Z,36.8
2023-05-01T14:56:59.247Z,36.9
2023-05-01T14:58:15.385Z,36.8
2023-05-01T14:59:31.516Z,36.8
2023-05-01T15:00:47.666Z,36.9
2023-05-01T15:02:03.798Z,36.9
2023-05-01T15:03:19.929Z,36.9
2023-05-01T15:04:36.063Z,36.9
2023-05-01T15:05:52.187Z,36.9
2023-05-01T15:07:08.345Z,37
2023-05-01T15:08:24.461Z,37
2023-05-01T15:09:40.601Z,37
2023-05-01T15:10:56.742Z,37
2023-05-01T15:12:12.998Z,37.1
2023-05-01T15:13:29.150Z,37.1
2023-05-01T15:14:45.273Z,37.2
2023-05-01T15:16:01.413Z,37.3
2023-05-01T15:17:17.545Z,37.4
2023-05-01T15:18:33.683Z,37.4
2023-05-01T15:19:49.818Z,37.5
2023-05-01T15:21:05.952Z,37.6
2023-05-01T15:22:22.000Z,37.6
2023-05-01T15:23:38.227Z,37.6
2023-05-01T15:24:54.366Z,37.7
2023-05-01T15:26:10.496Z,37.7
2023-05-01T15:27:26.636Z,37.7
2023-05-01T15:28:42.771Z,37.8
2023-05-01T15:29:58.902Z,37.8
2023-05-01T15:31:15.044Z,37.8
2023-05-01T15:32:31.195Z,37.9
2023-05-01T15:33:47.320Z,37.9
2023-05-01T15:35:03.444Z,37.9
2023-05-01T15:36:19.589Z,37.9
2023-05-01T15:37:35.727Z,37.9
2023-05-01T15:38:51.860Z,37.9
2023-05-01T15:40:07.999Z,38
2023-05-01T15:41:24.132Z,38
2023-05-01T15:42:40.267Z,38
2023-05-01T15:43:56.409Z,38.1
2023-05-01T15:45:12.555Z,38.1
2023-05-01T15:46:28.676Z,38.1
2023-05-01T15:47:44.808Z,38.1
2023-05-01T15:49:00.954Z,38.1
2023-05-01T15:50:17.091Z,38.2
2023-05-01T15:51:33.221Z,38.2
2023-05-01T15:52:49.364Z,38.3
2023-05-01T15:54:05.486Z,38.3
2023-05-01T15:55:21.635Z,38.3
2023-05-01T15:56:37.756Z,38.5
2023-05-01T15:57:53.913Z,38.5
2023-05-01T15:59:10.104Z,38.5
2023-05-01T16:00:25.310Z,38.5
2023-05-01T16:01:41.442Z,38.5
2023-05-01T16:02:57.591Z,38.5
2023-05-01T16:04:13.732Z,38.5
2023-05-01T16:05:29.850Z,38.5
2023-05-01T16:06:45.998Z,38.6
2023-05-01T16:08:02.122Z,38.6
2023-05-01T16:09:18.270Z,38.8
2023-05-01T16:10:34.395Z,38.8
2023-05-01T16:11:50.538Z,38.8
2023-05-01T16:13:06.662Z,38.8
2023-05-01T16:14:22.797Z,38.9
2023-05-01T16:15:38.940Z,39
2023-05-01T16:16:55.088Z,39
2023-05-01T16:18:11.212Z,39.1
2023-05-01T16:19:27.340Z,39.1
2023-05-01T16:20:43.491Z,39.2
2023-05-01T16:21:59.625Z,39.2
2023-05-01T16:23:15.772Z,39.3
2023-05-01T16:24:31.889Z,39.3
2023-05-01T16:25:48.024Z,39.3
2023-05-01T16:27:04.168Z,39.3
2023-05-01T16:28:20.309Z,39.4
2023-05-01T16:29:36.436Z,39.4
2023-05-01T16:30:52.585Z,39.4
2023-05-01T16:32:08.777Z,39.4
2023-05-01T16:33:24.036Z,39.4
2023-05-01T16:34:39.245Z,39.4
2023-05-01T16:35:54.396Z,39.5
2023-05-01T16:37:10.535Z,39.5
2023-05-01T16:38:26.681Z,39.5
2023-05-01T16:39:42.804Z,39.5
2023-05-01T16:40:58.940Z,39.6
2023-05-01T16:42:15.069Z,39.6
2023-05-01T16:43:31.228Z,39.7
2023-05-01T16:44:47.351Z,39.7
2023-05-01T16:46:03.488Z,39.7
2023-05-01T16:47:19.628Z,39.7
2023-05-01T16:48:35.761Z,39.8
2023-05-01T16:49:51.902Z,39.8
2023-05-01T16:51:08.036Z,39.8
2023-05-01T16:52:24.162Z,39.9
2023-05-01T16:53:40.310Z,39.9
2023-05-01T16:54:56.443Z,40
2023-05-01T16:56:12.579Z,40
2023-05-01T16:57:28.724Z,40.1
2023-05-01T16:58:44.857Z,40.1
2023-05-01T17:00:00.984Z,40.2
2023-05-01T17:01:17.125Z,40.2
2023-05-01T17:02:33.266Z,40.3
2023-05-01T17:03:49.401Z,40.3
2023-05-01T17:05:05.537Z,40.3
2023-05-01T17:06:21.672Z,40.4